sensor_id;sensor_type;location;lat;lon;timestamp;P1;durP1;ratioP1;P2;durP2;ratioP2
77191;SDS011;66172;48.526;8.078;2024-02-26T00:01:39;4.03;;;0.63;;
77191;SDS011;66172;48.526;8.078;2024-02-26T00:04:05;3.30;;;0.63;;
77191;SDS011;66172;48.526;8.078;2024-02-26T00:06:31;3.45;;;0.63;;
77191;SDS011;66172;48.526;8.078;2024-02-26T00:08:58;2.60;;;0.52;;
77191;SDS011;66172;48.526;8.078;2024-02-26T00:11:24;3.33;;;0.60;;
77191;SDS011;66172;48.526;8.078;2024-02-26T00:13:49;3.15;;;0.50;;
77191;SDS011;66172;48.526;8.078;2024-02-26T00:16:15;3.22;;;0.80;;
77191;SDS011;66172;48.526;8.078;2024-02-26T00:18:41;2.80;;;0.50;;
77191;SDS011;66172;48.526;8.078;2024-02-26T00:21:07;2.72;;;0.40;;
77191;SDS011;66172;48.526;8.078;2024-02-26T00:23:33;2.90;;;0.50;;
77191;SDS011;66172;48.526;8.078;2024-02-26T00:25:59;5.22;;;0.50;;
77191;SDS011;66172;48.526;8.078;2024-02-26T00:28:25;3.13;;;0.70;;
77191;SDS011;66172;48.526;8.078;2024-02-26T00:30:50;2.83;;;0.40;;
77191;SDS011;66172;48.526;8.078;2024-02-26T00:33:21;2.65;;;0.50;;
77191;SDS011;66172;48.526;8.078;2024-02-26T00:35:48;2.97;;;0.50;;
77191;SDS011;66172;48.526;8.078;2024-02-26T00:38:14;3.07;;;0.50;;
77191;SDS011;66172;48.526;8.078;2024-02-26T00:40:40;2.72;;;0.35;;
77191;SDS011;66172;48.526;8.078;2024-02-26T00:43:09;2.50;;;0.50;;
77191;SDS011;66172;48.526;8.078;2024-02-26T00:45:35;2.25;;;0.40;;
77191;SDS011;66172;48.526;8.078;2024-02-26T00:48:01;1.90;;;0.23;;
77191;SDS011;66172;48.526;8.078;2024-02-26T00:50:30;2.70;;;0.50;;
77191;SDS011;66172;48.526;8.078;2024-02-26T00:52:56;1.92;;;0.30;;
77191;SDS011;66172;48.526;8.078;2024-02-26T00:55:22;2.20;;;0.20;;
77191;SDS011;66172;48.526;8.078;2024-02-26T00:57:48;2.07;;;0.30;;
77191;SDS011;66172;48.526;8.078;2024-02-26T01:00:14;3.25;;;0.30;;
77191;SDS011;66172;48.526;8.078;2024-02-26T01:02:40;3.17;;;0.20;;
77191;SDS011;66172;48.526;8.078;2024-02-26T01:05:12;4.68;;;0.50;;
77191;SDS011;66172;48.526;8.078;2024-02-26T01:07:38;2.80;;;0.40;;
77191;SDS011;66172;48.526;8.078;2024-02-26T01:10:08;2.43;;;0.40;;
77191;SDS011;66172;48.526;8.078;2024-02-26T01:12:34;2.17;;;0.30;;
77191;SDS011;66172;48.526;8.078;2024-02-26T01:15:01;2.47;;;0.35;;
77191;SDS011;66172;48.526;8.078;2024-02-26T01:17:28;2.35;;;0.32;;
77191;SDS011;66172;48.526;8.078;2024-02-26T01:19:53;2.30;;;0.40;;
77191;SDS011;66172;48.526;8.078;2024-02-26T01:22:19;2.10;;;0.30;;
77191;SDS011;66172;48.526;8.078;2024-02-26T01:24:45;2.00;;;0.30;;
77191;SDS011;66172;48.526;8.078;2024-02-26T01:27:11;2.60;;;0.50;;
77191;SDS011;66172;48.526;8.078;2024-02-26T01:29:37;2.28;;;0.40;;
77191;SDS011;66172;48.526;8.078;2024-02-26T01:32:03;2.53;;;0.30;;
77191;SDS011;66172;48.526;8.078;2024-02-26T01:34:31;3.10;;;0.40;;
77191;SDS011;66172;48.526;8.078;2024-02-26T01:36:57;2.55;;;0.20;;
77191;SDS011;66172;48.526;8.078;2024-02-26T01:39:23;2.45;;;0.50;;
77191;SDS011;66172;48.526;8.078;2024-02-26T01:41:49;2.30;;;0.30;;
77191;SDS011;66172;48.526;8.078;2024-02-26T01:44:15;2.85;;;0.40;;
77191;SDS011;66172;48.526;8.078;2024-02-26T01:46:41;2.55;;;0.40;;
77191;SDS011;66172;48.526;8.078;2024-02-26T01:49:08;2.42;;;0.40;;
77191;SDS011;66172;48.526;8.078;2024-02-26T01:51:37;2.03;;;0.30;;
77191;SDS011;66172;48.526;8.078;2024-02-26T01:54:04;2.00;;;0.28;;
77191;SDS011;66172;48.526;8.078;2024-02-26T01:56:30;2.40;;;0.50;;
77191;SDS011;66172;48.526;8.078;2024-02-26T01:58:57;2.72;;;0.20;;
77191;SDS011;66172;48.526;8.078;2024-02-26T02:01:25;2.08;;;0.30;;
77191;SDS011;66172;48.526;8.078;2024-02-26T02:03:54;4.27;;;0.40;;
77191;SDS011;66172;48.526;8.078;2024-02-26T02:06:21;2.10;;;0.30;;
77191;SDS011;66172;48.526;8.078;2024-02-26T02:08:47;4.32;;;0.40;;
77191;SDS011;66172;48.526;8.078;2024-02-26T02:11:14;2.85;;;0.40;;
77191;SDS011;66172;48.526;8.078;2024-02-26T02:13:40;2.10;;;0.40;;
77191;SDS011;66172;48.526;8.078;2024-02-26T02:16:06;2.30;;;0.30;;
77191;SDS011;66172;48.526;8.078;2024-02-26T02:18:33;2.47;;;0.40;;
77191;SDS011;66172;48.526;8.078;2024-02-26T02:21:02;2.30;;;0.30;;
77191;SDS011;66172;48.526;8.078;2024-02-26T02:23:28;2.80;;;0.40;;
77191;SDS011;66172;48.526;8.078;2024-02-26T02:25:54;2.87;;;0.40;;
77191;SDS011;66172;48.526;8.078;2024-02-26T02:28:22;2.05;;;0.50;;
77191;SDS011;66172;48.526;8.078;2024-02-26T02:30:48;2.42;;;0.30;;
77191;SDS011;66172;48.526;8.078;2024-02-26T02:33:15;2.08;;;0.25;;
77191;SDS011;66172;48.526;8.078;2024-02-26T02:35:41;2.50;;;0.40;;
77191;SDS011;66172;48.526;8.078;2024-02-26T02:38:07;2.10;;;0.33;;
77191;SDS011;66172;48.526;8.078;2024-02-26T02:40:33;2.47;;;0.40;;
77191;SDS011;66172;48.526;8.078;2024-02-26T02:42:59;2.15;;;0.25;;
77191;SDS011;66172;48.526;8.078;2024-02-26T02:45:25;2.40;;;0.40;;
77191;SDS011;66172;48.526;8.078;2024-02-26T02:47:51;2.13;;;0.30;;
77191;SDS011;66172;48.526;8.078;2024-02-26T02:50:17;2.38;;;0.40;;
77191;SDS011;66172;48.526;8.078;2024-02-26T02:52:43;1.88;;;0.20;;
77191;SDS011;66172;48.526;8.078;2024-02-26T02:55:09;2.80;;;0.32;;
77191;SDS011;66172;48.526;8.078;2024-02-26T02:57:35;2.90;;;0.30;;
77191;SDS011;66172;48.526;8.078;2024-02-26T03:00:09;2.45;;;0.30;;
77191;SDS011;66172;48.526;8.078;2024-02-26T03:02:36;2.10;;;0.28;;
77191;SDS011;66172;48.526;8.078;2024-02-26T03:05:02;2.63;;;0.40;;
77191;SDS011;66172;48.526;8.078;2024-02-26T03:07:31;2.40;;;0.40;;
77191;SDS011;66172;48.526;8.078;2024-02-26T03:09:57;1.88;;;0.20;;
77191;SDS011;66172;48.526;8.078;2024-02-26T03:12:23;2.13;;;0.30;;
77191;SDS011;66172;48.526;8.078;2024-02-26T03:14:49;2.13;;;0.35;;
77191;SDS011;66172;48.526;8.078;2024-02-26T03:17:15;1.97;;;0.23;;
77191;SDS011;66172;48.526;8.078;2024-02-26T03:19:41;2.13;;;0.35;;
77191;SDS011;66172;48.526;8.078;2024-02-26T03:22:07;2.28;;;0.20;;
77191;SDS011;66172;48.526;8.078;2024-02-26T03:24:33;2.23;;;0.30;;
77191;SDS011;66172;48.526;8.078;2024-02-26T03:26:58;3.38;;;0.50;;
77191;SDS011;66172;48.526;8.078;2024-02-26T03:29:24;2.70;;;0.43;;
77191;SDS011;66172;48.526;8.078;2024-02-26T03:31:50;2.10;;;0.30;;
77191;SDS011;66172;48.526;8.078;2024-02-26T03:34:16;2.20;;;0.40;;
77191;SDS011;66172;48.526;8.078;2024-02-26T03:36:44;2.20;;;0.40;;
77191;SDS011;66172;48.526;8.078;2024-02-26T03:39:10;2.35;;;0.20;;
77191;SDS011;66172;48.526;8.078;2024-02-26T03:41:35;3.10;;;0.30;;
77191;SDS011;66172;48.526;8.078;2024-02-26T03:44:02;2.08;;;0.30;;
77191;SDS011;66172;48.526;8.078;2024-02-26T03:46:28;2.88;;;0.47;;
77191;SDS011;66172;48.526;8.078;2024-02-26T03:48:54;2.25;;;0.30;;
77191;SDS011;66172;48.526;8.078;2024-02-26T03:51:20;2.22;;;0.30;;
77191;SDS011;66172;48.526;8.078;2024-02-26T03:53:45;3.80;;;0.40;;
77191;SDS011;66172;48.526;8.078;2024-02-26T03:56:12;2.47;;;0.35;;
77191;SDS011;66172;48.526;8.078;2024-02-26T03:58:40;2.53;;;0.40;;
77191;SDS011;66172;48.526;8.078;2024-02-26T04:01:09;2.10;;;0.30;;
77191;SDS011;66172;48.526;8.078;2024-02-26T04:03:35;2.53;;;0.30;;
77191;SDS011;66172;48.526;8.078;2024-02-26T04:06:01;2.97;;;0.40;;
77191;SDS011;66172;48.526;8.078;2024-02-26T04:08:28;2.28;;;0.40;;
77191;SDS011;66172;48.526;8.078;2024-02-26T04:10:54;2.37;;;0.30;;
77191;SDS011;66172;48.526;8.078;2024-02-26T04:13:20;2.75;;;0.32;;
77191;SDS011;66172;48.526;8.078;2024-02-26T04:15:46;2.50;;;0.30;;
77191;SDS011;66172;48.526;8.078;2024-02-26T04:18:12;2.15;;;0.40;;
77191;SDS011;66172;48.526;8.078;2024-02-26T04:20:39;2.07;;;0.30;;
77191;SDS011;66172;48.526;8.078;2024-02-26T04:23:07;4.50;;;0.30;;
77191;SDS011;66172;48.526;8.078;2024-02-26T04:25:33;2.42;;;0.40;;
77191;SDS011;66172;48.526;8.078;2024-02-26T04:27:59;2.70;;;0.30;;
77191;SDS011;66172;48.526;8.078;2024-02-26T04:30:25;2.42;;;0.40;;
77191;SDS011;66172;48.526;8.078;2024-02-26T04:32:51;3.10;;;0.50;;
77191;SDS011;66172;48.526;8.078;2024-02-26T04:35:17;2.95;;;0.40;;
77191;SDS011;66172;48.526;8.078;2024-02-26T04:37:43;2.53;;;0.45;;
77191;SDS011;66172;48.526;8.078;2024-02-26T04:40:08;3.47;;;0.40;;
77191;SDS011;66172;48.526;8.078;2024-02-26T04:42:34;2.65;;;0.50;;
77191;SDS011;66172;48.526;8.078;2024-02-26T04:45:00;2.90;;;0.30;;
77191;SDS011;66172;48.526;8.078;2024-02-26T04:47:26;2.50;;;0.43;;
77191;SDS011;66172;48.526;8.078;2024-02-26T04:49:52;2.50;;;0.40;;
77191;SDS011;66172;48.526;8.078;2024-02-26T04:52:18;2.80;;;0.30;;
77191;SDS011;66172;48.526;8.078;2024-02-26T04:54:44;3.03;;;0.30;;
77191;SDS011;66172;48.526;8.078;2024-02-26T04:57:10;2.95;;;0.43;;
77191;SDS011;66172;48.526;8.078;2024-02-26T04:59:36;3.20;;;0.50;;
77191;SDS011;66172;48.526;8.078;2024-02-26T05:02:02;2.60;;;0.50;;
77191;SDS011;66172;48.526;8.078;2024-02-26T05:04:28;2.95;;;0.40;;
77191;SDS011;66172;48.526;8.078;2024-02-26T05:06:54;4.28;;;0.40;;
77191;SDS011;66172;48.526;8.078;2024-02-26T05:09:20;2.90;;;0.50;;
77191;SDS011;66172;48.526;8.078;2024-02-26T05:11:46;2.97;;;0.50;;
77191;SDS011;66172;48.526;8.078;2024-02-26T05:14:12;3.70;;;0.52;;
77191;SDS011;66172;48.526;8.078;2024-02-26T05:16:38;3.87;;;0.50;;
77191;SDS011;66172;48.526;8.078;2024-02-26T05:19:04;3.53;;;0.50;;
77191;SDS011;66172;48.526;8.078;2024-02-26T05:21:31;3.45;;;0.43;;
77191;SDS011;66172;48.526;8.078;2024-02-26T05:23:57;3.40;;;0.60;;
77191;SDS011;66172;48.526;8.078;2024-02-26T05:26:23;3.70;;;0.90;;
77191;SDS011;66172;48.526;8.078;2024-02-26T05:28:49;2.92;;;0.55;;
77191;SDS011;66172;48.526;8.078;2024-02-26T05:31:15;3.13;;;0.60;;
77191;SDS011;66172;48.526;8.078;2024-02-26T05:33:41;3.15;;;0.60;;
77191;SDS011;66172;48.526;8.078;2024-02-26T05:36:07;3.00;;;0.40;;
77191;SDS011;66172;48.526;8.078;2024-02-26T05:38:33;4.63;;;0.68;;
77191;SDS011;66172;48.526;8.078;2024-02-26T05:40:59;4.40;;;0.60;;
77191;SDS011;66172;48.526;8.078;2024-02-26T05:43:25;3.60;;;0.60;;
77191;SDS011;66172;48.526;8.078;2024-02-26T05:45:52;3.00;;;0.50;;
77191;SDS011;66172;48.526;8.078;2024-02-26T05:48:18;2.85;;;0.38;;
77191;SDS011;66172;48.526;8.078;2024-02-26T05:50:47;3.30;;;0.70;;
77191;SDS011;66172;48.526;8.078;2024-02-26T05:53:14;3.60;;;0.50;;
77191;SDS011;66172;48.526;8.078;2024-02-26T05:55:40;2.70;;;0.50;;
77191;SDS011;66172;48.526;8.078;2024-02-26T05:58:06;2.70;;;0.50;;
77191;SDS011;66172;48.526;8.078;2024-02-26T06:00:32;2.75;;;0.55;;
77191;SDS011;66172;48.526;8.078;2024-02-26T06:02:58;2.60;;;0.32;;
77191;SDS011;66172;48.526;8.078;2024-02-26T06:05:24;3.20;;;0.47;;
77191;SDS011;66172;48.526;8.078;2024-02-26T06:07:50;3.47;;;1.00;;
77191;SDS011;66172;48.526;8.078;2024-02-26T06:10:15;4.05;;;1.85;;
77191;SDS011;66172;48.526;8.078;2024-02-26T06:12:41;3.20;;;0.88;;
77191;SDS011;66172;48.526;8.078;2024-02-26T06:15:07;3.33;;;0.77;;
77191;SDS011;66172;48.526;8.078;2024-02-26T06:17:34;3.00;;;0.60;;
77191;SDS011;66172;48.526;8.078;2024-02-26T06:20:00;5.78;;;1.40;;
77191;SDS011;66172;48.526;8.078;2024-02-26T06:22:26;3.63;;;0.85;;
77191;SDS011;66172;48.526;8.078;2024-02-26T06:24:52;3.93;;;0.83;;
77191;SDS011;66172;48.526;8.078;2024-02-26T06:27:18;3.90;;;0.68;;
77191;SDS011;66172;48.526;8.078;2024-02-26T06:29:44;3.58;;;0.60;;
77191;SDS011;66172;48.526;8.078;2024-02-26T06:32:10;3.97;;;0.70;;
77191;SDS011;66172;48.526;8.078;2024-02-26T06:34:36;3.87;;;0.60;;
77191;SDS011;66172;48.526;8.078;2024-02-26T06:37:03;3.65;;;0.50;;
77191;SDS011;66172;48.526;8.078;2024-02-26T06:39:29;3.58;;;0.70;;
77191;SDS011;66172;48.526;8.078;2024-02-26T06:41:55;3.93;;;1.10;;
77191;SDS011;66172;48.526;8.078;2024-02-26T06:44:26;4.25;;;0.90;;
77191;SDS011;66172;48.526;8.078;2024-02-26T06:46:57;3.47;;;0.60;;
77191;SDS011;66172;48.526;8.078;2024-02-26T06:49:25;3.53;;;0.70;;
77191;SDS011;66172;48.526;8.078;2024-02-26T06:51:51;2.70;;;0.50;;
77191;SDS011;66172;48.526;8.078;2024-02-26T06:54:17;3.47;;;0.60;;
77191;SDS011;66172;48.526;8.078;2024-02-26T06:56:43;2.83;;;0.35;;
77191;SDS011;66172;48.526;8.078;2024-02-26T06:59:09;3.78;;;0.90;;
77191;SDS011;66172;48.526;8.078;2024-02-26T07:01:34;3.78;;;0.60;;
77191;SDS011;66172;48.526;8.078;2024-02-26T07:04:00;3.00;;;0.60;;
77191;SDS011;66172;48.526;8.078;2024-02-26T07:06:27;3.20;;;0.70;;
77191;SDS011;66172;48.526;8.078;2024-02-26T07:08:53;3.63;;;0.40;;
77191;SDS011;66172;48.526;8.078;2024-02-26T07:11:19;3.42;;;0.40;;
77191;SDS011;66172;48.526;8.078;2024-02-26T07:13:45;2.60;;;0.30;;
77191;SDS011;66172;48.526;8.078;2024-02-26T07:16:11;3.25;;;0.45;;
77191;SDS011;66172;48.526;8.078;2024-02-26T07:18:38;4.32;;;0.82;;
77191;SDS011;66172;48.526;8.078;2024-02-26T07:21:05;3.40;;;0.63;;
77191;SDS011;66172;48.526;8.078;2024-02-26T07:23:31;2.80;;;0.60;;
77191;SDS011;66172;48.526;8.078;2024-02-26T07:25:57;2.95;;;0.50;;
77191;SDS011;66172;48.526;8.078;2024-02-26T07:28:23;3.70;;;0.70;;
77191;SDS011;66172;48.526;8.078;2024-02-26T07:30:49;3.65;;;0.70;;
77191;SDS011;66172;48.526;8.078;2024-02-26T07:33:15;6.40;;;2.50;;
77191;SDS011;66172;48.526;8.078;2024-02-26T07:35:41;4.17;;;1.03;;
77191;SDS011;66172;48.526;8.078;2024-02-26T07:38:07;3.35;;;0.70;;
77191;SDS011;66172;48.526;8.078;2024-02-26T07:40:33;3.40;;;0.70;;
77191;SDS011;66172;48.526;8.078;2024-02-26T07:42:59;3.37;;;0.67;;
77191;SDS011;66172;48.526;8.078;2024-02-26T07:45:25;12.93;;;4.05;;
77191;SDS011;66172;48.526;8.078;2024-02-26T07:47:51;27.27;;;10.27;;
77191;SDS011;66172;48.526;8.078;2024-02-26T07:50:17;19.95;;;7.00;;
77191;SDS011;66172;48.526;8.078;2024-02-26T07:52:44;4.07;;;0.85;;
77191;SDS011;66172;48.526;8.078;2024-02-26T07:55:10;2.90;;;0.43;;
77191;SDS011;66172;48.526;8.078;2024-02-26T07:57:36;3.00;;;0.60;;
77191;SDS011;66172;48.526;8.078;2024-02-26T08:00:02;3.42;;;0.52;;
77191;SDS011;66172;48.526;8.078;2024-02-26T08:02:29;2.90;;;0.40;;
77191;SDS011;66172;48.526;8.078;2024-02-26T08:04:55;5.20;;;1.57;;
77191;SDS011;66172;48.526;8.078;2024-02-26T08:07:21;3.33;;;0.50;;
77191;SDS011;66172;48.526;8.078;2024-02-26T08:09:47;5.28;;;1.38;;
77191;SDS011;66172;48.526;8.078;2024-02-26T08:12:13;4.45;;;0.90;;
77191;SDS011;66172;48.526;8.078;2024-02-26T08:14:39;4.63;;;0.40;;
77191;SDS011;66172;48.526;8.078;2024-02-26T08:17:05;3.10;;;0.60;;
77191;SDS011;66172;48.526;8.078;2024-02-26T08:19:31;3.17;;;0.60;;
77191;SDS011;66172;48.526;8.078;2024-02-26T08:21:57;3.20;;;0.80;;
77191;SDS011;66172;48.526;8.078;2024-02-26T08:24:23;3.37;;;0.60;;
77191;SDS011;66172;48.526;8.078;2024-02-26T08:26:49;3.70;;;0.45;;
77191;SDS011;66172;48.526;8.078;2024-02-26T08:29:15;2.63;;;0.45;;
77191;SDS011;66172;48.526;8.078;2024-02-26T08:31:41;3.00;;;0.50;;
77191;SDS011;66172;48.526;8.078;2024-02-26T08:34:06;3.83;;;0.40;;
77191;SDS011;66172;48.526;8.078;2024-02-26T08:36:33;2.13;;;0.30;;
77191;SDS011;66172;48.526;8.078;2024-02-26T08:38:59;2.80;;;0.40;;
77191;SDS011;66172;48.526;8.078;2024-02-26T08:41:26;2.93;;;0.37;;
77191;SDS011;66172;48.526;8.078;2024-02-26T08:43:52;2.78;;;0.30;;
77191;SDS011;66172;48.526;8.078;2024-02-26T08:46:17;14.07;;;4.13;;
77191;SDS011;66172;48.526;8.078;2024-02-26T08:48:43;52.85;;;12.85;;
77191;SDS011;66172;48.526;8.078;2024-02-26T08:51:09;16.17;;;5.07;;
77191;SDS011;66172;48.526;8.078;2024-02-26T08:53:35;4.75;;;1.05;;
77191;SDS011;66172;48.526;8.078;2024-02-26T08:56:02;3.30;;;0.60;;
77191;SDS011;66172;48.526;8.078;2024-02-26T08:58:28;3.40;;;0.60;;
77191;SDS011;66172;48.526;8.078;2024-02-26T09:00:54;3.22;;;0.63;;
77191;SDS011;66172;48.526;8.078;2024-02-26T09:03:20;4.07;;;0.90;;
77191;SDS011;66172;48.526;8.078;2024-02-26T09:05:46;3.22;;;0.73;;
77191;SDS011;66172;48.526;8.078;2024-02-26T09:08:13;4.85;;;0.98;;
77191;SDS011;66172;48.526;8.078;2024-02-26T09:10:39;3.97;;;0.63;;
77191;SDS011;66172;48.526;8.078;2024-02-26T09:13:05;3.20;;;0.60;;
77191;SDS011;66172;48.526;8.078;2024-02-26T09:15:31;3.17;;;0.60;;
77191;SDS011;66172;48.526;8.078;2024-02-26T09:17:57;4.07;;;1.35;;
77191;SDS011;66172;48.526;8.078;2024-02-26T09:20:24;3.70;;;0.60;;
77191;SDS011;66172;48.526;8.078;2024-02-26T09:22:50;4.60;;;0.70;;
77191;SDS011;66172;48.526;8.078;2024-02-26T09:25:16;4.13;;;1.13;;
77191;SDS011;66172;48.526;8.078;2024-02-26T09:27:43;4.68;;;1.30;;
77191;SDS011;66172;48.526;8.078;2024-02-26T09:30:10;3.80;;;1.33;;
77191;SDS011;66172;48.526;8.078;2024-02-26T09:32:36;3.08;;;0.80;;
77191;SDS011;66172;48.526;8.078;2024-02-26T09:35:03;3.40;;;0.73;;
77191;SDS011;66172;48.526;8.078;2024-02-26T09:37:29;3.40;;;0.60;;
77191;SDS011;66172;48.526;8.078;2024-02-26T09:39:55;3.10;;;0.55;;
77191;SDS011;66172;48.526;8.078;2024-02-26T09:42:21;3.65;;;0.90;;
77191;SDS011;66172;48.526;8.078;2024-02-26T09:44:56;4.00;;;1.00;;
77191;SDS011;66172;48.526;8.078;2024-02-26T09:47:28;3.00;;;0.52;;
77191;SDS011;66172;48.526;8.078;2024-02-26T09:49:57;3.00;;;0.60;;
77191;SDS011;66172;48.526;8.078;2024-02-26T09:52:25;2.53;;;0.30;;
77191;SDS011;66172;48.526;8.078;2024-02-26T09:54:53;2.67;;;0.45;;
77191;SDS011;66172;48.526;8.078;2024-02-26T09:57:20;2.43;;;0.30;;
77191;SDS011;66172;48.526;8.078;2024-02-26T09:59:50;3.60;;;0.57;;
77191;SDS011;66172;48.526;8.078;2024-02-26T10:02:19;3.13;;;0.50;;
77191;SDS011;66172;48.526;8.078;2024-02-26T10:04:46;3.40;;;0.50;;
77191;SDS011;66172;48.526;8.078;2024-02-26T10:07:15;2.38;;;0.40;;
77191;SDS011;66172;48.526;8.078;2024-02-26T10:09:41;2.50;;;0.50;;
77191;SDS011;66172;48.526;8.078;2024-02-26T10:12:08;5.55;;;1.35;;
77191;SDS011;66172;48.526;8.078;2024-02-26T10:14:36;7.07;;;1.58;;
77191;SDS011;66172;48.526;8.078;2024-02-26T10:17:02;3.95;;;1.30;;
77191;SDS011;66172;48.526;8.078;2024-02-26T10:19:28;5.80;;;1.90;;
77191;SDS011;66172;48.526;8.078;2024-02-26T10:21:56;5.30;;;1.57;;
77191;SDS011;66172;48.526;8.078;2024-02-26T10:24:23;3.83;;;1.20;;
77191;SDS011;66172;48.526;8.078;2024-02-26T10:26:51;4.75;;;1.10;;
77191;SDS011;66172;48.526;8.078;2024-02-26T10:29:18;3.90;;;1.02;;
77191;SDS011;66172;48.526;8.078;2024-02-26T10:31:44;4.72;;;1.10;;
77191;SDS011;66172;48.526;8.078;2024-02-26T10:34:10;3.20;;;0.70;;
77191;SDS011;66172;48.526;8.078;2024-02-26T10:36:36;2.97;;;0.60;;
77191;SDS011;66172;48.526;8.078;2024-02-26T10:39:03;2.13;;;0.30;;
77191;SDS011;66172;48.526;8.078;2024-02-26T10:41:30;2.25;;;0.40;;
77191;SDS011;66172;48.526;8.078;2024-02-26T10:43:58;2.80;;;0.43;;
77191;SDS011;66172;48.526;8.078;2024-02-26T10:46:25;2.67;;;0.40;;
77191;SDS011;66172;48.526;8.078;2024-02-26T10:48:51;2.40;;;0.40;;
77191;SDS011;66172;48.526;8.078;2024-02-26T10:51:28;2.22;;;0.40;;
77191;SDS011;66172;48.526;8.078;2024-02-26T10:53:56;3.37;;;0.50;;
77191;SDS011;66172;48.526;8.078;2024-02-26T10:56:26;3.08;;;0.65;;
77191;SDS011;66172;48.526;8.078;2024-02-26T10:58:58;4.20;;;1.20;;
77191;SDS011;66172;48.526;8.078;2024-02-26T11:01:26;4.22;;;1.15;;
77191;SDS011;66172;48.526;8.078;2024-02-26T11:03:55;4.60;;;1.65;;
77191;SDS011;66172;48.526;8.078;2024-02-26T11:06:21;4.67;;;1.50;;
77191;SDS011;66172;48.526;8.078;2024-02-26T11:08:48;4.68;;;1.70;;
77191;SDS011;66172;48.526;8.078;2024-02-26T11:11:15;4.30;;;1.50;;
77191;SDS011;66172;48.526;8.078;2024-02-26T11:13:45;4.15;;;1.40;;
77191;SDS011;66172;48.526;8.078;2024-02-26T11:16:20;5.68;;;1.63;;
77191;SDS011;66172;48.526;8.078;2024-02-26T11:18:47;5.20;;;1.60;;
77191;SDS011;66172;48.526;8.078;2024-02-26T11:21:17;7.00;;;2.67;;
77191;SDS011;66172;48.526;8.078;2024-02-26T11:23:45;6.78;;;3.10;;
77191;SDS011;66172;48.526;8.078;2024-02-26T11:26:12;8.13;;;2.72;;
77191;SDS011;66172;48.526;8.078;2024-02-26T11:28:40;8.38;;;2.75;;
77191;SDS011;66172;48.526;8.078;2024-02-26T11:31:07;7.30;;;3.50;;
77191;SDS011;66172;48.526;8.078;2024-02-26T11:33:33;7.50;;;2.90;;
77191;SDS011;66172;48.526;8.078;2024-02-26T11:36:02;7.10;;;2.70;;
77191;SDS011;66172;48.526;8.078;2024-02-26T11:38:33;6.57;;;2.50;;
77191;SDS011;66172;48.526;8.078;2024-02-26T11:40:59;8.23;;;2.78;;
77191;SDS011;66172;48.526;8.078;2024-02-26T11:46:33;7.47;;;2.85;;
77191;SDS011;66172;48.526;8.078;2024-02-26T11:49:30;7.40;;;2.80;;
77191;SDS011;66172;48.526;8.078;2024-02-26T11:51:50;6.38;;;2.42;;
77191;SDS011;66172;48.526;8.078;2024-02-26T11:57:24;6.57;;;2.30;;
77191;SDS011;66172;48.526;8.078;2024-02-26T12:00:02;6.70;;;2.35;;
77191;SDS011;66172;48.526;8.078;2024-02-26T12:02:38;5.70;;;2.20;;
77191;SDS011;66172;48.526;8.078;2024-02-26T12:05:18;5.80;;;1.77;;
77191;SDS011;66172;48.526;8.078;2024-02-26T12:10:17;5.30;;;1.20;;
77191;SDS011;66172;48.526;8.078;2024-02-26T12:13:00;3.83;;;1.30;;
77191;SDS011;66172;48.526;8.078;2024-02-26T12:15:30;5.15;;;0.98;;
77191;SDS011;66172;48.526;8.078;2024-02-26T12:18:02;4.10;;;1.00;;
77191;SDS011;66172;48.526;8.078;2024-02-26T12:20:30;3.75;;;0.90;;
77191;SDS011;66172;48.526;8.078;2024-02-26T12:22:56;3.30;;;0.73;;
77191;SDS011;66172;48.526;8.078;2024-02-26T12:25:26;3.88;;;0.80;;
77191;SDS011;66172;48.526;8.078;2024-02-26T12:27:54;4.10;;;1.00;;
77191;SDS011;66172;48.526;8.078;2024-02-26T12:30:21;3.60;;;0.90;;
77191;SDS011;66172;48.526;8.078;2024-02-26T12:32:48;5.05;;;0.80;;
77191;SDS011;66172;48.526;8.078;2024-02-26T12:35:15;4.03;;;0.90;;
77191;SDS011;66172;48.526;8.078;2024-02-26T12:37:42;4.13;;;0.95;;
77191;SDS011;66172;48.526;8.078;2024-02-26T12:40:09;4.03;;;1.00;;
77191;SDS011;66172;48.526;8.078;2024-02-26T12:42:35;4.55;;;1.00;;
77191;SDS011;66172;48.526;8.078;2024-02-26T12:45:06;5.50;;;1.00;;
77191;SDS011;66172;48.526;8.078;2024-02-26T12:47:35;5.20;;;1.20;;
77191;SDS011;66172;48.526;8.078;2024-02-26T12:50:02;5.15;;;1.00;;
77191;SDS011;66172;48.526;8.078;2024-02-26T12:52:31;4.65;;;1.00;;
77191;SDS011;66172;48.526;8.078;2024-02-26T12:54:58;3.70;;;0.90;;
77191;SDS011;66172;48.526;8.078;2024-02-26T12:57:24;5.30;;;1.63;;
77191;SDS011;66172;48.526;8.078;2024-02-26T12:59:50;5.10;;;1.30;;
77191;SDS011;66172;48.526;8.078;2024-02-26T13:02:16;4.18;;;1.15;;
77191;SDS011;66172;48.526;8.078;2024-02-26T13:04:42;4.47;;;1.20;;
77191;SDS011;66172;48.526;8.078;2024-02-26T13:07:09;4.90;;;1.40;;
77191;SDS011;66172;48.526;8.078;2024-02-26T13:09:35;5.05;;;1.27;;
77191;SDS011;66172;48.526;8.078;2024-02-26T13:12:03;4.87;;;1.30;;
77191;SDS011;66172;48.526;8.078;2024-02-26T13:14:30;4.00;;;1.02;;
77191;SDS011;66172;48.526;8.078;2024-02-26T13:16:57;4.28;;;1.10;;
77191;SDS011;66172;48.526;8.078;2024-02-26T13:19:24;4.07;;;1.00;;
77191;SDS011;66172;48.526;8.078;2024-02-26T13:21:50;3.88;;;1.10;;
77191;SDS011;66172;48.526;8.078;2024-02-26T13:24:16;3.70;;;1.10;;
77191;SDS011;66172;48.526;8.078;2024-02-26T13:26:43;4.38;;;1.30;;
77191;SDS011;66172;48.526;8.078;2024-02-26T13:29:09;4.63;;;1.08;;
77191;SDS011;66172;48.526;8.078;2024-02-26T13:31:42;5.13;;;1.23;;
77191;SDS011;66172;48.526;8.078;2024-02-26T13:34:08;4.60;;;1.40;;
77191;SDS011;66172;48.526;8.078;2024-02-26T13:36:34;4.53;;;1.52;;
77191;SDS011;66172;48.526;8.078;2024-02-26T13:39:00;5.07;;;1.50;;
77191;SDS011;66172;48.526;8.078;2024-02-26T13:41:26;4.78;;;1.33;;
77191;SDS011;66172;48.526;8.078;2024-02-26T13:43:52;4.47;;;1.30;;
77191;SDS011;66172;48.526;8.078;2024-02-26T13:46:19;4.05;;;1.08;;
77191;SDS011;66172;48.526;8.078;2024-02-26T13:48:45;4.63;;;1.00;;
77191;SDS011;66172;48.526;8.078;2024-02-26T13:51:11;4.20;;;1.20;;
77191;SDS011;66172;48.526;8.078;2024-02-26T13:53:37;3.93;;;1.20;;
77191;SDS011;66172;48.526;8.078;2024-02-26T13:56:03;4.82;;;1.30;;
77191;SDS011;66172;48.526;8.078;2024-02-26T13:58:31;3.97;;;1.20;;
77191;SDS011;66172;48.526;8.078;2024-02-26T14:00:57;4.95;;;1.08;;
77191;SDS011;66172;48.526;8.078;2024-02-26T14:03:25;4.10;;;1.13;;
77191;SDS011;66172;48.526;8.078;2024-02-26T14:05:50;5.38;;;1.08;;
77191;SDS011;66172;48.526;8.078;2024-02-26T14:08:16;5.93;;;1.17;;
77191;SDS011;66172;48.526;8.078;2024-02-26T14:10:42;4.38;;;0.85;;
77191;SDS011;66172;48.526;8.078;2024-02-26T14:13:08;3.70;;;1.10;;
77191;SDS011;66172;48.526;8.078;2024-02-26T14:15:34;4.70;;;0.85;;
77191;SDS011;66172;48.526;8.078;2024-02-26T14:18:01;4.15;;;1.10;;
77191;SDS011;66172;48.526;8.078;2024-02-26T14:20:28;4.10;;;1.00;;
77191;SDS011;66172;48.526;8.078;2024-02-26T14:22:54;4.20;;;1.00;;
77191;SDS011;66172;48.526;8.078;2024-02-26T14:25:21;4.10;;;0.73;;
77191;SDS011;66172;48.526;8.078;2024-02-26T14:27:47;5.63;;;1.30;;
77191;SDS011;66172;48.526;8.078;2024-02-26T14:30:13;4.35;;;1.25;;
77191;SDS011;66172;48.526;8.078;2024-02-26T14:32:40;5.17;;;1.40;;
77191;SDS011;66172;48.526;8.078;2024-02-26T14:35:06;4.00;;;1.02;;
77191;SDS011;66172;48.526;8.078;2024-02-26T14:37:34;5.68;;;1.90;;
77191;SDS011;66172;48.526;8.078;2024-02-26T14:40:01;4.47;;;1.40;;
77191;SDS011;66172;48.526;8.078;2024-02-26T14:42:28;4.88;;;1.70;;
77191;SDS011;66172;48.526;8.078;2024-02-26T14:44:54;3.43;;;0.90;;
77191;SDS011;66172;48.526;8.078;2024-02-26T14:47:21;3.55;;;0.90;;
77191;SDS011;66172;48.526;8.078;2024-02-26T14:49:46;3.95;;;0.73;;
77191;SDS011;66172;48.526;8.078;2024-02-26T14:52:14;3.67;;;0.82;;
77191;SDS011;66172;48.526;8.078;2024-02-26T14:54:40;4.63;;;0.80;;